Terminal Aerodrome Forecast
Issued by NWS

Home | Current Version | Previous Version | Text Only | Print | Product List | Glossary On
Versions: 1 2 3 4 5 6 7 8 9 10 11 12 13
960
FTUS45 KABQ 252333
TAFROW
TAF
KROW 252333Z 2600/2624 31018G28KT P6SM SKC
     FM260100 30007KT P6SM SKC
     FM260600 VRB03KT P6SM SKC
     FM261700 16010KT P6SM SKC
     FM261900 17015G23KT P6SM SKC=

USA.gov is the U.S. government's official web portal to all federal, state and local government web resources and services.